createdAt,value
2023-01-08T00:01:42.238Z,86.75
2023-01-08T00:04:11.581Z,86.59
2023-01-08T00:06:40.070Z,88.89
2023-01-08T00:09:08.758Z,88.24
2023-01-08T00:11:37.259Z,88.27
2023-01-08T00:14:06.133Z,87.97
2023-01-08T00:16:36.107Z,88.00
2023-01-08T00:19:04.668Z,90.71
2023-01-08T00:21:33.194Z,87.79
2023-01-08T00:24:01.662Z,88.79
2023-01-08T00:26:30.382Z,87.12
2023-01-08T00:28:58.972Z,87.57
2023-01-08T00:31:27.494Z,86.46
2023-01-08T00:33:57.354Z,86.72
2023-01-08T00:36:26.289Z,86.28
2023-01-08T00:38:54.754Z,88.12
2023-01-08T00:41:23.683Z,85.76
2023-01-08T00:43:52.203Z,86.72
2023-01-08T00:46:21.068Z,88.86
2023-01-08T00:48:49.596Z,87.11
2023-01-08T00:51:19.673Z,87.44
2023-01-08T00:53:48.108Z,87.42
2023-01-08T00:56:16.640Z,87.29
2023-01-08T00:58:45.329Z,89.00
2023-01-08T01:01:15.981Z,89.01
2023-01-08T01:03:45.305Z,88.31
2023-01-08T01:06:15.791Z,88.26
2023-01-08T01:08:45.688Z,89.16
2023-01-08T01:11:21.393Z,88.25
2023-01-08T01:13:50.449Z,89.24
2023-01-08T01:16:19.458Z,89.67
2023-01-08T01:18:48.544Z,88.59
2023-01-08T01:21:24.809Z,88.93
2023-01-08T01:23:57.932Z,89.21
2023-01-08T01:26:27.870Z,90.14
2023-01-08T01:28:58.566Z,89.93
2023-01-08T01:31:29.499Z,89.31
2023-01-08T01:33:58.406Z,90.63
2023-01-08T01:36:28.145Z,90.06
2023-01-08T01:38:59.369Z,90.52
2023-01-08T01:41:31.386Z,89.09
2023-01-08T01:44:02.297Z,89.21
2023-01-08T01:46:38.979Z,90.14
2023-01-08T01:49:11.958Z,89.13
2023-01-08T01:51:45.867Z,86.95
2023-01-08T01:54:16.190Z,89.66
2023-01-08T01:56:45.458Z,88.59
2023-01-08T01:59:14.780Z,88.76
2023-01-08T02:01:44.234Z,88.19
2023-01-08T02:04:14.769Z,89.10
2023-01-08T02:06:49.552Z,88.58
2023-01-08T02:09:35.735Z,88.34
2023-01-08T02:12:19.290Z,89.72
2023-01-08T02:15:02.056Z,89.42
2023-01-08T02:17:39.083Z,88.08
2023-01-08T02:20:13.522Z,89.24
2023-01-08T02:23:09.579Z,88.46
2023-01-08T02:26:05.357Z,89.64
2023-01-08T02:28:39.503Z,89.90
2023-01-08T02:31:08.859Z,88.96
2023-01-08T02:33:37.895Z,88.83
2023-01-08T02:36:38.822Z,88.97
2023-01-08T02:39:29.492Z,88.84
2023-01-08T02:42:12.844Z,87.96
2023-01-08T02:44:58.423Z,88.48
2023-01-08T02:47:33.482Z,89.30
2023-01-08T02:50:10.301Z,87.91
2023-01-08T02:52:46.012Z,87.42
2023-01-08T02:55:16.298Z,88.65
2023-01-08T02:57:47.113Z,88.22
2023-01-08T03:00:16.989Z,88.11
2023-01-08T03:02:46.022Z,88.65
2023-01-08T03:05:24.105Z,88.29
2023-01-08T03:07:53.033Z,88.45
2023-01-08T03:10:24.601Z,88.85
2023-01-08T03:12:58.123Z,88.62
2023-01-08T03:15:32.683Z,88.04
2023-01-08T03:18:07.841Z,89.20
2023-01-08T03:20:38.553Z,89.34
2023-01-08T03:23:11.108Z,88.39
2023-01-08T03:25:42.613Z,88.81
2023-01-08T03:28:19.177Z,88.51
2023-01-08T03:30:51.004Z,89.14
2023-01-08T03:33:21.355Z,88.17
2023-01-08T03:35:54.953Z,88.23
2023-01-08T03:38:29.117Z,89.66
2023-01-08T03:41:03.173Z,89.87
2023-01-08T03:43:33.261Z,88.85
2023-01-08T03:46:08.536Z,89.62
2023-01-08T03:48:37.886Z,90.11
2023-01-08T03:51:10.787Z,89.52
2023-01-08T03:53:39.422Z,89.12
2023-01-08T03:56:08.927Z,89.01
2023-01-08T03:58:38.767Z,89.70
2023-01-08T04:01:07.811Z,90.20
2023-01-08T04:03:36.624Z,89.18
2023-01-08T04:06:05.216Z,90.44
2023-01-08T04:08:33.742Z,91.56
2023-01-08T04:11:02.278Z,90.31
2023-01-08T04:13:30.754Z,90.94
2023-01-08T04:16:00.605Z,91.29
2023-01-08T04:18:29.124Z,91.39
2023-01-08T04:20:57.616Z,91.78
2023-01-08T04:23:26.295Z,91.16
2023-01-08T04:25:54.810Z,91.63
2023-01-08T04:28:25.069Z,91.23
2023-01-08T04:30:53.614Z,91.67
2023-01-08T04:33:23.508Z,90.31
2023-01-08T04:35:51.991Z,90.93
2023-01-08T04:38:20.465Z,90.91
2023-01-08T04:40:48.911Z,92.02
2023-01-08T04:43:17.348Z,90.64
2023-01-08T04:45:45.794Z,91.02
2023-01-08T04:48:14.274Z,91.55
2023-01-08T04:50:44.112Z,91.59
2023-01-08T04:53:12.577Z,91.60
2023-01-08T04:55:41.230Z,91.85
2023-01-08T04:58:10.074Z,92.93
2023-01-08T05:00:40.665Z,91.31
2023-01-08T05:03:09.229Z,91.17
2023-01-08T05:05:38.958Z,92.31
2023-01-08T05:08:08.880Z,94.44
2023-01-08T05:10:37.555Z,92.70
2023-01-08T05:13:06.032Z,94.46
2023-01-08T05:15:34.574Z,91.44
2023-01-08T05:18:06.076Z,91.11
2023-01-08T05:20:35.048Z,91.58
2023-01-08T05:23:04.140Z,92.72
2023-01-08T05:25:33.969Z,91.30
2023-01-08T05:28:02.549Z,93.80
2023-01-08T05:30:31.263Z,92.30
2023-01-08T05:32:59.747Z,93.17
2023-01-08T05:35:28.227Z,91.80
2023-01-08T05:37:56.736Z,91.23
2023-01-08T05:40:25.233Z,89.95
2023-01-08T05:42:55.241Z,89.92
2023-01-08T05:45:23.688Z,90.67
2023-01-08T05:47:52.419Z,89.84
2023-01-08T05:50:20.867Z,89.69
2023-01-08T05:52:51.927Z,90.29
2023-01-08T05:55:20.366Z,91.41
2023-01-08T05:57:48.908Z,90.96
2023-01-08T06:00:19.500Z,91.91
2023-01-08T06:02:48.981Z,90.71
2023-01-08T06:05:17.710Z,90.65
2023-01-08T06:07:46.184Z,89.78
2023-01-08T06:10:14.884Z,89.71
2023-01-08T06:12:43.341Z,90.96
2023-01-08T06:15:13.738Z,90.31
2023-01-08T06:17:43.759Z,89.90
2023-01-08T06:20:13.337Z,88.50
2023-01-08T06:22:41.840Z,88.99
2023-01-08T06:25:11.079Z,88.74
2023-01-08T06:27:40.696Z,88.53
2023-01-08T06:30:10.768Z,89.82
2023-01-08T06:32:39.432Z,89.09
2023-01-08T06:35:10.449Z,89.21
2023-01-08T06:37:38.926Z,89.57
2023-01-08T06:40:08.933Z,89.92
2023-01-08T06:42:37.592Z,89.46
2023-01-08T06:45:08.039Z,88.85
2023-01-08T06:47:36.760Z,88.87
2023-01-08T06:50:07.244Z,89.21
2023-01-08T06:52:37.301Z,90.13
2023-01-08T06:55:07.289Z,90.40
2023-01-08T06:57:35.972Z,90.78
2023-01-08T07:00:05.105Z,90.43
2023-01-08T07:02:33.761Z,90.48
2023-01-08T07:05:02.303Z,90.59
2023-01-08T07:07:31.001Z,89.43
2023-01-08T07:10:01.101Z,90.56
2023-01-08T07:12:29.595Z,88.43
2023-01-08T07:14:59.282Z,90.22
2023-01-08T07:17:27.778Z,89.33
2023-01-08T07:19:56.495Z,89.01
2023-01-08T07:22:25.895Z,89.08
2023-01-08T07:24:54.422Z,88.92
2023-01-08T07:27:24.321Z,89.11
2023-01-08T07:29:52.835Z,88.42
2023-01-08T07:32:21.307Z,90.33
2023-01-08T07:34:50.308Z,87.96
2023-01-08T07:37:18.779Z,89.50
2023-01-08T07:39:47.243Z,88.73
2023-01-08T07:42:16.116Z,88.45
2023-01-08T07:44:45.927Z,88.12
2023-01-08T07:47:15.333Z,88.97
2023-01-08T07:49:43.774Z,89.09
2023-01-08T07:52:12.224Z,88.56
2023-01-08T07:54:40.960Z,88.86
2023-01-08T07:57:09.442Z,88.12
2023-01-08T07:59:37.961Z,88.54
2023-01-08T08:02:08.276Z,88.77
2023-01-08T08:04:36.809Z,88.89
2023-01-08T08:07:05.351Z,89.12
2023-01-08T08:09:33.745Z,89.22
2023-01-08T08:12:02.443Z,89.91
2023-01-08T08:14:30.937Z,89.63
2023-01-08T08:16:59.464Z,89.08
2023-01-08T08:19:29.290Z,89.20
2023-01-08T08:21:57.732Z,90.17
2023-01-08T08:24:26.169Z,91.04
2023-01-08T08:26:55.335Z,91.52
2023-01-08T08:29:23.847Z,89.69
2023-01-08T08:31:52.360Z,89.82
2023-01-08T08:34:22.669Z,90.88
2023-01-08T08:36:52.653Z,90.43
2023-01-08T08:39:21.431Z,90.76
2023-01-08T08:41:49.889Z,90.05
2023-01-08T08:44:18.348Z,90.30
2023-01-08T08:46:46.927Z,89.88
2023-01-08T08:49:15.428Z,88.80
2023-01-08T08:51:44.113Z,88.84
2023-01-08T08:54:14.182Z,89.39
2023-01-08T08:56:42.701Z,88.50
2023-01-08T08:59:13.298Z,88.89
2023-01-08T09:01:42.058Z,89.27
2023-01-08T09:04:10.722Z,88.60
2023-01-08T09:06:39.549Z,88.88
2023-01-08T09:09:08.334Z,87.94
2023-01-08T09:11:39.076Z,88.46
2023-01-08T09:14:07.662Z,88.83
2023-01-08T09:16:37.432Z,89.58
2023-01-08T09:19:07.151Z,87.97
2023-01-08T09:21:35.978Z,88.95
2023-01-08T09:24:05.021Z,88.98
2023-01-08T09:26:33.680Z,88.85
2023-01-08T09:29:03.729Z,88.90
2023-01-08T09:31:32.567Z,89.83
2023-01-08T09:34:01.270Z,89.06
2023-01-08T09:36:30.879Z,90.53
2023-01-08T09:39:00.063Z,89.41
2023-01-08T09:41:32.629Z,89.18
2023-01-08T09:44:05.836Z,89.69
2023-01-08T09:46:35.972Z,89.49
2023-01-08T09:49:08.643Z,90.46
2023-01-08T09:51:39.147Z,90.41
2023-01-08T09:54:08.758Z,89.79
2023-01-08T09:56:38.232Z,89.23
2023-01-08T09:59:08.656Z,89.23
2023-01-08T10:01:41.216Z,90.78
2023-01-08T10:04:17.828Z,88.86
2023-01-08T10:06:54.375Z,90.01
2023-01-08T10:09:28.039Z,90.44
2023-01-08T10:12:01.255Z,89.56
2023-01-08T10:14:33.750Z,89.35
2023-01-08T10:17:11.551Z,89.48
2023-01-08T10:19:40.441Z,89.33
2023-01-08T10:22:14.902Z,89.23
2023-01-08T10:24:44.136Z,88.52
2023-01-08T10:27:17.012Z,88.76
2023-01-08T10:29:47.200Z,88.69
2023-01-08T10:32:18.426Z,88.98
2023-01-08T10:34:50.484Z,88.30
2023-01-08T10:37:27.595Z,89.22
2023-01-08T10:40:03.129Z,89.05
2023-01-08T10:42:37.297Z,88.14
2023-01-08T10:45:17.246Z,87.61
2023-01-08T10:47:49.507Z,88.07
2023-01-08T10:50:24.692Z,87.39
2023-01-08T10:52:55.950Z,89.36
2023-01-08T10:55:28.561Z,90.45
2023-01-08T10:58:02.597Z,89.24
2023-01-08T11:00:35.028Z,90.88
2023-01-08T11:03:07.627Z,91.12
2023-01-08T11:05:39.532Z,89.50
2023-01-08T11:08:17.810Z,90.71
2023-01-08T11:10:55.690Z,90.42
2023-01-08T11:13:25.365Z,89.06
2023-01-08T11:16:06.639Z,89.78
2023-01-08T11:18:46.792Z,90.02
2023-01-08T11:21:23.545Z,88.87
2023-01-08T11:24:10.978Z,89.00
2023-01-08T11:26:42.092Z,89.44
2023-01-08T11:29:17.957Z,88.98
2023-01-08T11:31:56.092Z,88.19
2023-01-08T11:34:34.669Z,88.83
2023-01-08T11:37:13.155Z,89.48
2023-01-08T11:39:41.760Z,89.31
2023-01-08T11:42:33.757Z,88.03
2023-01-08T11:45:17.645Z,86.99
2023-01-08T11:48:15.001Z,89.46
2023-01-08T11:50:56.666Z,88.16
2023-01-08T11:53:34.965Z,88.58
2023-01-08T11:56:21.084Z,88.51
2023-01-08T11:59:09.077Z,88.52
2023-01-08T12:01:51.803Z,87.76
2023-01-08T12:04:53.175Z,87.45
2023-01-08T12:07:32.055Z,87.59
2023-01-08T12:10:09.488Z,88.87
2023-01-08T12:12:54.778Z,88.00
2023-01-08T12:15:36.670Z,88.81
2023-01-08T12:18:25.984Z,88.69
2023-01-08T12:21:07.880Z,88.47
2023-01-08T12:24:01.891Z,88.35
2023-01-08T12:26:42.586Z,87.97
2023-01-08T12:29:34.654Z,87.94
2023-01-08T12:32:19.043Z,88.76
2023-01-08T12:34:58.047Z,86.86
2023-01-08T12:37:36.302Z,87.28
2023-01-08T12:40:14.905Z,88.37
2023-01-08T12:42:50.432Z,87.87
2023-01-08T12:45:30.419Z,86.70
2023-01-08T12:48:05.627Z,86.94
2023-01-08T12:50:52.383Z,87.10
2023-01-08T12:53:32.735Z,86.71
2023-01-08T12:56:10.025Z,85.79
2023-01-08T12:59:06.179Z,86.39
2023-01-08T13:01:45.150Z,87.08
2023-01-08T13:04:14.866Z,87.51
2023-01-08T13:06:53.493Z,87.72
2023-01-08T13:09:27.644Z,86.64
2023-01-08T13:11:59.215Z,87.91
2023-01-08T13:14:28.783Z,86.60
2023-01-08T13:17:06.945Z,86.27
2023-01-08T13:19:41.676Z,86.96
2023-01-08T13:22:26.552Z,87.61
2023-01-08T13:25:30.225Z,86.36
2023-01-08T13:27:59.649Z,86.15
2023-01-08T13:30:40.277Z,87.62
2023-01-08T13:33:41.789Z,87.81
2023-01-08T13:36:23.671Z,86.30
2023-01-08T13:39:23.481Z,86.90
2023-01-08T13:42:31.552Z,88.42
2023-01-08T13:45:02.423Z,88.21
2023-01-08T13:47:35.364Z,88.10
2023-01-08T13:50:16.874Z,87.48
2023-01-08T13:52:47.698Z,88.82
2023-01-08T13:55:20.073Z,88.83
2023-01-08T13:57:57.468Z,89.49
2023-01-08T14:00:31.894Z,90.27
2023-01-08T14:03:00.440Z,88.65
2023-01-08T14:05:34.550Z,88.80
2023-01-08T14:08:03.036Z,89.35
2023-01-08T14:10:32.358Z,90.24
2023-01-08T14:13:10.186Z,88.57
2023-01-08T14:15:40.585Z,89.71
2023-01-08T14:18:09.121Z,89.83
2023-01-08T14:20:40.599Z,90.29
2023-01-08T14:23:18.592Z,89.66
2023-01-08T14:25:49.844Z,90.11
2023-01-08T14:28:23.384Z,90.03
2023-01-08T14:30:54.006Z,89.66
2023-01-08T14:33:28.473Z,90.99
2023-01-08T14:35:58.015Z,90.09
2023-01-08T14:38:26.668Z,89.94
2023-01-08T14:41:02.235Z,90.90
2023-01-08T14:43:40.008Z,90.59
2023-01-08T14:46:19.504Z,90.30
2023-01-08T14:48:49.264Z,89.86
2023-01-08T14:51:24.771Z,89.49
2023-01-08T14:53:57.877Z,90.46
2023-01-08T14:56:34.185Z,90.83
2023-01-08T14:59:09.624Z,90.97
2023-01-08T15:01:38.387Z,90.72
2023-01-08T15:04:13.634Z,90.41
2023-01-08T15:06:42.192Z,90.83
2023-01-08T15:09:24.257Z,90.79
2023-01-08T15:11:56.266Z,91.14
2023-01-08T15:14:29.038Z,90.89
2023-01-08T15:17:00.049Z,92.01
2023-01-08T15:19:31.087Z,91.88
2023-01-08T15:22:01.322Z,91.20
2023-01-08T15:24:34.334Z,91.80
2023-01-08T15:27:10.140Z,91.73
2023-01-08T15:29:47.987Z,91.58
2023-01-08T15:32:24.671Z,91.31
2023-01-08T15:34:53.155Z,91.00
2023-01-08T15:37:21.654Z,91.80
2023-01-08T15:39:50.343Z,91.55
2023-01-08T15:42:39.014Z,92.73
2023-01-08T15:45:16.152Z,91.83
2023-01-08T15:47:44.865Z,91.87
2023-01-08T15:50:13.566Z,91.43
2023-01-08T15:52:44.474Z,91.10
2023-01-08T15:55:19.047Z,90.99
2023-01-08T15:57:47.563Z,91.21
2023-01-08T16:00:20.412Z,91.52
2023-01-08T16:02:51.665Z,90.13
2023-01-08T16:05:22.642Z,90.54
2023-01-08T16:07:51.499Z,91.26
2023-01-08T16:10:20.647Z,91.06
2023-01-08T16:12:49.193Z,90.86
2023-01-08T16:15:19.774Z,90.33
2023-01-08T16:17:48.560Z,90.96
2023-01-08T16:20:18.164Z,91.40
2023-01-08T16:22:46.638Z,91.43
2023-01-08T16:25:15.212Z,90.46
2023-01-08T16:27:43.824Z,90.23
2023-01-08T16:30:15.774Z,90.35
2023-01-08T16:32:46.713Z,89.82
2023-01-08T16:35:15.177Z,90.57
2023-01-08T16:37:43.651Z,90.91
2023-01-08T16:40:13.985Z,91.23
2023-01-08T16:42:42.452Z,91.19
2023-01-08T16:45:11.934Z,91.01
2023-01-08T16:47:40.932Z,91.24
2023-01-08T16:50:12.794Z,90.51
2023-01-08T16:52:41.323Z,91.07
2023-01-08T16:55:11.929Z,91.55
2023-01-08T16:57:40.401Z,91.43
2023-01-08T17:00:10.614Z,90.83
2023-01-08T17:02:39.213Z,91.65
2023-01-08T17:05:10.346Z,91.85
2023-01-08T17:07:38.802Z,91.28
2023-01-08T17:10:09.046Z,90.94
2023-01-08T17:12:37.563Z,91.07
2023-01-08T17:15:07.600Z,91.13
2023-01-08T17:17:36.065Z,90.25
2023-01-08T17:20:05.646Z,90.54
2023-01-08T17:22:35.547Z,91.23
2023-01-08T17:25:04.171Z,91.32
2023-01-08T17:27:35.720Z,90.56
2023-01-08T17:30:05.017Z,90.86
2023-01-08T17:32:33.824Z,90.85
2023-01-08T17:35:02.579Z,90.65
2023-01-08T17:37:31.749Z,89.96
2023-01-08T17:40:02.372Z,90.35
2023-01-08T17:42:31.367Z,90.64
2023-01-08T17:45:03.032Z,90.63
2023-01-08T17:47:32.937Z,91.30
2023-01-08T17:50:02.240Z,90.86
2023-01-08T17:52:30.786Z,91.25
2023-01-08T17:55:00.837Z,91.81
2023-01-08T17:57:31.630Z,91.85
2023-01-08T18:00:01.103Z,91.46
2023-01-08T18:02:29.647Z,91.54
2023-01-08T18:04:58.775Z,91.24
2023-01-08T18:07:27.277Z,91.49
2023-01-08T18:09:57.465Z,91.37
2023-01-08T18:12:27.341Z,91.31
2023-01-08T18:14:55.984Z,91.54
2023-01-08T18:17:24.477Z,91.04
2023-01-08T18:19:53.181Z,91.18
2023-01-08T18:22:22.212Z,91.60
2023-01-08T18:24:50.643Z,92.14
2023-01-08T18:27:19.149Z,91.73
2023-01-08T18:29:49.086Z,91.80
2023-01-08T18:32:22.205Z,91.99
2023-01-08T18:34:50.927Z,91.33
2023-01-08T18:37:19.487Z,91.78
2023-01-08T18:39:49.089Z,91.69
2023-01-08T18:42:26.771Z,91.62
2023-01-08T18:44:57.810Z,91.07
2023-01-08T18:47:28.908Z,91.73
2023-01-08T18:50:00.089Z,91.57
2023-01-08T18:52:29.693Z,90.97
2023-01-08T18:54:58.362Z,91.43
2023-01-08T18:57:26.995Z,90.95
2023-01-08T18:59:56.832Z,91.48
2023-01-08T19:02:29.168Z,91.05
2023-01-08T19:04:57.712Z,91.64
2023-01-08T19:07:26.900Z,91.05
2023-01-08T19:09:56.963Z,90.85
2023-01-08T19:12:27.312Z,90.54
2023-01-08T19:14:57.160Z,90.78
2023-01-08T19:17:25.844Z,91.78
2023-01-08T19:19:54.346Z,92.54
2023-01-08T19:22:26.871Z,91.99
2023-01-08T19:24:55.745Z,92.39
2023-01-08T19:27:24.330Z,92.50
2023-01-08T19:29:53.322Z,93.36
2023-01-08T19:32:23.193Z,93.04
2023-01-08T19:34:53.553Z,92.71
2023-01-08T19:37:22.113Z,92.78
2023-01-08T19:39:50.590Z,92.13
2023-01-08T19:42:36.665Z,92.24
2023-01-08T19:45:06.561Z,92.80
2023-01-08T19:47:36.588Z,92.38
2023-01-08T19:50:06.152Z,92.73
2023-01-08T19:52:34.613Z,92.63
2023-01-08T19:55:03.090Z,91.29
2023-01-08T19:57:31.637Z,92.42
2023-01-08T20:00:00.364Z,92.17
2023-01-08T20:02:29.013Z,91.53
2023-01-08T20:04:59.091Z,92.65
2023-01-08T20:07:27.640Z,92.11
2023-01-08T20:09:56.420Z,92.16
2023-01-08T20:12:24.910Z,91.46
2023-01-08T20:14:53.556Z,90.48
2023-01-08T20:17:25.249Z,92.17
2023-01-08T20:19:54.321Z,92.14
2023-01-08T20:22:25.029Z,91.55
2023-01-08T20:24:53.805Z,89.57
2023-01-08T20:27:22.285Z,90.61
2023-01-08T20:29:51.019Z,92.82
2023-01-08T20:32:22.733Z,92.01
2023-01-08T20:34:51.810Z,92.65
2023-01-08T20:37:20.509Z,92.99
2023-01-08T20:39:50.395Z,92.38
2023-01-08T20:42:33.112Z,90.42
2023-01-08T20:45:02.219Z,90.83
2023-01-08T20:47:30.723Z,90.52
2023-01-08T20:49:59.502Z,91.03
2023-01-08T20:52:30.731Z,92.86
2023-01-08T20:55:00.793Z,93.01
2023-01-08T20:57:29.246Z,90.64
2023-01-08T20:59:57.681Z,92.22
2023-01-08T21:02:26.128Z,93.44
2023-01-08T21:04:55.099Z,93.04
2023-01-08T21:07:23.555Z,92.62
2023-01-08T21:09:52.029Z,93.19
2023-01-08T21:12:21.909Z,92.10
2023-01-08T21:14:50.601Z,92.63
2023-01-08T21:17:19.323Z,92.50
2023-01-08T21:19:47.785Z,93.37
2023-01-08T21:22:16.258Z,92.44
2023-01-08T21:24:44.698Z,91.53
2023-01-08T21:27:13.210Z,90.83
2023-01-08T21:29:43.045Z,91.02
2023-01-08T21:32:11.733Z,90.78
2023-01-08T21:34:40.208Z,91.11
2023-01-08T21:37:08.724Z,90.77
2023-01-08T21:39:37.488Z,90.93
2023-01-08T21:42:23.918Z,90.57
2023-01-08T21:45:11.123Z,91.37
2023-01-08T21:47:39.586Z,90.68
2023-01-08T21:50:09.256Z,91.37
2023-01-08T21:52:55.293Z,91.04
2023-01-08T21:55:23.842Z,92.12
2023-01-08T21:57:52.363Z,91.11
2023-01-08T22:00:24.093Z,91.54
2023-01-08T22:02:52.605Z,91.36
2023-01-08T22:05:21.087Z,91.44
2023-01-08T22:07:49.782Z,91.19
2023-01-08T22:10:18.442Z,91.36
2023-01-08T22:12:46.911Z,91.57
2023-01-08T22:15:15.860Z,91.29
2023-01-08T22:17:45.705Z,91.20
2023-01-08T22:20:14.983Z,91.29
2023-01-08T22:22:47.317Z,91.21
2023-01-08T22:25:15.993Z,91.09
2023-01-08T22:27:44.469Z,91.30
2023-01-08T22:30:13.780Z,91.44
2023-01-08T22:32:42.208Z,91.53
2023-01-08T22:35:12.229Z,92.08
2023-01-08T22:37:43.619Z,92.02
2023-01-08T22:40:13.501Z,92.01
2023-01-08T22:42:41.937Z,92.54
2023-01-08T22:45:11.137Z,90.65
2023-01-08T22:47:39.637Z,91.13
2023-01-08T22:50:08.806Z,91.34
2023-01-08T22:52:38.688Z,91.57
2023-01-08T22:55:08.504Z,91.78
2023-01-08T22:57:37.080Z,91.30
2023-01-08T23:00:09.940Z,90.76
2023-01-08T23:02:38.869Z,91.24
2023-01-08T23:05:08.099Z,91.30
2023-01-08T23:07:38.023Z,90.56
2023-01-08T23:10:07.726Z,91.05
2023-01-08T23:12:36.181Z,89.87
2023-01-08T23:15:06.165Z,89.96
2023-01-08T23:17:44.583Z,90.40
2023-01-08T23:20:20.853Z,90.08
2023-01-08T23:22:51.014Z,89.21
2023-01-08T23:25:19.504Z,89.56
2023-01-08T23:27:48.050Z,90.44
2023-01-08T23:30:16.548Z,90.23
2023-01-08T23:32:45.004Z,89.99
2023-01-08T23:35:13.670Z,90.22
2023-01-08T23:37:42.119Z,90.10
2023-01-08T23:40:13.921Z,88.72
2023-01-08T23:42:43.283Z,89.95
2023-01-08T23:45:13.009Z,89.23
2023-01-08T23:47:41.794Z,89.22
2023-01-08T23:50:12.244Z,88.51
2023-01-08T23:52:40.768Z,89.53
2023-01-08T23:55:11.509Z,88.80
2023-01-08T23:57:40.333Z,89.78
